Aérodrome :
LOGIN :

S'inscrire | Disclaimer

   EN    FR    IT 

 










Légende :    VFR   VFR Marginal   IFR   IFR Intensif   IFR Très Intensif
Visi : 
Plafond : 
>= 8 km
>= 3000ft
5 à 8 km
1000 à 3000 ft
1500m à 5 km
500 à 1000 ft
800 à 1500m
200 à 500 ft
< 800m
< 200 ft
Symboles :   Orages  Brouillard  Fortes neiges  Fortes précipitations  Vent > 20 kt
SIGMETs :   Divers  Orages  Givrage  Turbulence  Onde Orograph.  Cendres Volcan.







- Altitude de l'aérodrome : 290 ft
- Code IATA : LAI
- Voir les cartes d'approche


LFRO - Lannion

DERNIER METAR :
  • 230930Z AUTO 01010KT 350V060 9999 SCT017 BKN024 BKN031 07/04 Q1009 BECMG 06020G30KT 4000 RADZ OVC010

METARs EXPIRÉS :
  • 230900Z AUTO 02010KT 350V060 9999 SCT023 BKN029 OVC078 07/03 Q1009 TEMPO SCT018TCU BECMG 06020G30KT 4000 RADZ
  • 230830Z AUTO 02005KT 340V060 9999 FEW023 SCT031 OVC084 07/03 Q1009 TEMPO SCT018TCU BECMG 06020G30KT 4000 RADZ
  • 230800Z AUTO 02010KT 340V050 9999 SCT019 BKN031 BKN039 07/03 Q1009 TEMPO SHRA BECMG SCT018TCU
  • 230730Z AUTO 03003KT 330V080 9999 FEW039 SCT047 OVC082 06/03 Q1009 TEMPO SHRA BECMG SCT018TCU
  • 230700Z AUTO 05003KT 350V080 9999 FEW036 BKN066 OVC078 06/03 Q1009 TEMPO SHRA BKN015TCU

TAF AMD TAF LFRO
Valide du 23 à 09h jusqu'au 24 à 06h UTC


230924Z 2309/2406 02010KT 9999 SCT018TCU
BECMG 2309/2312 06014G28KT
TEMPO 2309/2318 SHRA BKN015TCU
BECMG 2318/2321 12008KT 4000 RADZ OVC010
BECMG 2321/2324 9999 NSW SCT020
TEMPO 2400/2406 3000 BR
PROB30
TEMPO 2400/2406 0800 FG BKN002
Pas de NOTAMs connus pour ce terrain.



MET'MAP, la Météo Aéronautique d'un coup d'oeil ! - Copyright ORBIFLY Décembre 2007 - Disclaimer

ORBIFLY MET'MAP TEAM :

Programmation & Développement : Alexandra Zaïnal
Conception & Développement : Baudouin d'Aumeries
Co-Programmation & Développement : Marc-Olivier Méhu
Soutien technique & logistique : Manuel Goepfert

Contact : metmap@orbifly.com




SOURCES & CREDITS :

   NOAA